sensor_id;sensor_type;location;lat;lon;timestamp;P1;durP1;ratioP1;P2;durP2;ratioP2
18695;SDS011;22617;43.690;27.956;2022-07-06T00:02:01;3.78;;;2.55;;
18695;SDS011;22617;43.690;27.956;2022-07-06T00:07:06;4.20;;;2.40;;
18695;SDS011;22617;43.690;27.956;2022-07-06T00:12:11;3.72;;;2.50;;
18695;SDS011;22617;43.690;27.956;2022-07-06T00:17:15;4.28;;;2.50;;
18695;SDS011;22617;43.690;27.956;2022-07-06T00:22:20;3.65;;;2.17;;
18695;SDS011;22617;43.690;27.956;2022-07-06T00:27:25;5.00;;;2.83;;
18695;SDS011;22617;43.690;27.956;2022-07-06T00:32:29;3.53;;;2.20;;
18695;SDS011;22617;43.690;27.956;2022-07-06T00:37:34;3.88;;;2.20;;
18695;SDS011;22617;43.690;27.956;2022-07-06T00:42:40;4.15;;;2.42;;
18695;SDS011;22617;43.690;27.956;2022-07-06T00:47:45;4.57;;;2.35;;
18695;SDS011;22617;43.690;27.956;2022-07-06T00:52:50;3.40;;;2.60;;
18695;SDS011;22617;43.690;27.956;2022-07-06T00:57:58;6.03;;;2.92;;
18695;SDS011;22617;43.690;27.956;2022-07-06T01:03:03;3.70;;;2.70;;
18695;SDS011;22617;43.690;27.956;2022-07-06T01:08:08;3.17;;;2.33;;
18695;SDS011;22617;43.690;27.956;2022-07-06T01:13:13;5.47;;;3.38;;
18695;SDS011;22617;43.690;27.956;2022-07-06T01:18:18;4.93;;;3.40;;
18695;SDS011;22617;43.690;27.956;2022-07-06T01:23:24;7.95;;;4.22;;
18695;SDS011;22617;43.690;27.956;2022-07-06T01:28:29;6.90;;;3.90;;
18695;SDS011;22617;43.690;27.956;2022-07-06T01:33:33;5.38;;;3.58;;
18695;SDS011;22617;43.690;27.956;2022-07-06T01:38:47;6.95;;;3.88;;
18695;SDS011;22617;43.690;27.956;2022-07-06T01:43:52;8.95;;;4.40;;
18695;SDS011;22617;43.690;27.956;2022-07-06T01:48:56;8.23;;;4.20;;
18695;SDS011;22617;43.690;27.956;2022-07-06T01:54:03;6.82;;;4.18;;
18695;SDS011;22617;43.690;27.956;2022-07-06T01:59:07;6.20;;;4.35;;
18695;SDS011;22617;43.690;27.956;2022-07-06T02:04:12;6.40;;;3.95;;
18695;SDS011;22617;43.690;27.956;2022-07-06T02:09:18;5.47;;;3.70;;
18695;SDS011;22617;43.690;27.956;2022-07-06T02:14:22;7.45;;;4.18;;
18695;SDS011;22617;43.690;27.956;2022-07-06T02:19:28;10.15;;;4.43;;
18695;SDS011;22617;43.690;27.956;2022-07-06T02:24:34;5.90;;;4.00;;
18695;SDS011;22617;43.690;27.956;2022-07-06T02:29:39;6.95;;;4.13;;
18695;SDS011;22617;43.690;27.956;2022-07-06T02:34:43;6.60;;;3.88;;
18695;SDS011;22617;43.690;27.956;2022-07-06T02:45:48;6.60;;;4.05;;
18695;SDS011;22617;43.690;27.956;2022-07-06T02:50:53;6.85;;;4.43;;
18695;SDS011;22617;43.690;27.956;2022-07-06T02:55:58;6.57;;;4.30;;
18695;SDS011;22617;43.690;27.956;2022-07-06T03:01:05;6.95;;;4.13;;
18695;SDS011;22617;43.690;27.956;2022-07-06T03:06:10;6.22;;;4.00;;
18695;SDS011;22617;43.690;27.956;2022-07-06T03:11:15;6.78;;;4.28;;
18695;SDS011;22617;43.690;27.956;2022-07-06T03:16:21;7.38;;;4.10;;
18695;SDS011;22617;43.690;27.956;2022-07-06T03:21:25;6.97;;;4.18;;
18695;SDS011;22617;43.690;27.956;2022-07-06T03:26:31;5.63;;;4.18;;
18695;SDS011;22617;43.690;27.956;2022-07-06T03:31:38;6.43;;;3.65;;
18695;SDS011;22617;43.690;27.956;2022-07-06T03:36:42;5.90;;;4.00;;
18695;SDS011;22617;43.690;27.956;2022-07-06T03:41:46;6.35;;;4.00;;
18695;SDS011;22617;43.690;27.956;2022-07-06T03:46:53;9.45;;;4.18;;
18695;SDS011;22617;43.690;27.956;2022-07-06T03:52:00;9.38;;;3.50;;
18695;SDS011;22617;43.690;27.956;2022-07-06T03:57:14;4.93;;;3.55;;
18695;SDS011;22617;43.690;27.956;2022-07-06T04:02:21;6.10;;;3.58;;
18695;SDS011;22617;43.690;27.956;2022-07-06T04:07:27;7.43;;;3.60;;
18695;SDS011;22617;43.690;27.956;2022-07-06T04:12:32;6.68;;;3.13;;
18695;SDS011;22617;43.690;27.956;2022-07-06T04:17:45;5.30;;;3.65;;
18695;SDS011;22617;43.690;27.956;2022-07-06T04:23:21;4.95;;;3.47;;
18695;SDS011;22617;43.690;27.956;2022-07-06T04:28:27;5.13;;;3.65;;
18695;SDS011;22617;43.690;27.956;2022-07-06T04:33:33;5.15;;;3.55;;
18695;SDS011;22617;43.690;27.956;2022-07-06T04:38:38;5.20;;;3.70;;
18695;SDS011;22617;43.690;27.956;2022-07-06T04:43:45;5.50;;;4.30;;
18695;SDS011;22617;43.690;27.956;2022-07-06T04:48:53;8.45;;;4.80;;
18695;SDS011;22617;43.690;27.956;2022-07-06T04:54:02;7.68;;;4.80;;
18695;SDS011;22617;43.690;27.956;2022-07-06T04:59:10;7.57;;;4.95;;
18695;SDS011;22617;43.690;27.956;2022-07-06T05:04:16;8.13;;;5.43;;
18695;SDS011;22617;43.690;27.956;2022-07-06T05:09:22;10.75;;;5.28;;
18695;SDS011;22617;43.690;27.956;2022-07-06T05:14:26;5.50;;;4.45;;
18695;SDS011;22617;43.690;27.956;2022-07-06T05:19:33;6.68;;;4.20;;
18695;SDS011;22617;43.690;27.956;2022-07-06T05:24:37;7.65;;;4.90;;
18695;SDS011;22617;43.690;27.956;2022-07-06T05:29:42;5.63;;;4.53;;
18695;SDS011;22617;43.690;27.956;2022-07-06T05:34:49;9.25;;;4.50;;
18695;SDS011;22617;43.690;27.956;2022-07-06T05:39:55;6.47;;;4.32;;
18695;SDS011;22617;43.690;27.956;2022-07-06T05:44:59;7.63;;;4.55;;
18695;SDS011;22617;43.690;27.956;2022-07-06T05:50:07;7.68;;;4.70;;
18695;SDS011;22617;43.690;27.956;2022-07-06T05:55:23;8.43;;;4.80;;
18695;SDS011;22617;43.690;27.956;2022-07-06T06:00:28;8.32;;;4.80;;
18695;SDS011;22617;43.690;27.956;2022-07-06T06:05:40;9.63;;;5.00;;
18695;SDS011;22617;43.690;27.956;2022-07-06T06:10:46;9.35;;;4.50;;
18695;SDS011;22617;43.690;27.956;2022-07-06T06:15:53;11.68;;;5.20;;
18695;SDS011;22617;43.690;27.956;2022-07-06T06:20:59;8.85;;;4.43;;
18695;SDS011;22617;43.690;27.956;2022-07-06T06:26:03;6.45;;;4.68;;
18695;SDS011;22617;43.690;27.956;2022-07-06T06:31:08;12.18;;;5.20;;
18695;SDS011;22617;43.690;27.956;2022-07-06T06:36:13;9.05;;;4.72;;
18695;SDS011;22617;43.690;27.956;2022-07-06T06:41:18;8.15;;;4.88;;
18695;SDS011;22617;43.690;27.956;2022-07-06T06:46:22;9.63;;;5.03;;
18695;SDS011;22617;43.690;27.956;2022-07-06T06:51:28;7.50;;;4.28;;
18695;SDS011;22617;43.690;27.956;2022-07-06T06:56:32;5.95;;;4.35;;
18695;SDS011;22617;43.690;27.956;2022-07-06T07:01:37;5.22;;;4.32;;
18695;SDS011;22617;43.690;27.956;2022-07-06T07:06:42;8.80;;;4.60;;
18695;SDS011;22617;43.690;27.956;2022-07-06T07:11:47;7.28;;;4.68;;
18695;SDS011;22617;43.690;27.956;2022-07-06T07:16:51;6.47;;;4.32;;
18695;SDS011;22617;43.690;27.956;2022-07-06T07:21:57;5.45;;;4.20;;
18695;SDS011;22617;43.690;27.956;2022-07-06T07:27:02;8.05;;;4.30;;
18695;SDS011;22617;43.690;27.956;2022-07-06T07:32:07;10.45;;;4.05;;
18695;SDS011;22617;43.690;27.956;2022-07-06T07:37:13;8.30;;;4.80;;
18695;SDS011;22617;43.690;27.956;2022-07-06T07:42:17;7.25;;;4.30;;
18695;SDS011;22617;43.690;27.956;2022-07-06T07:47:21;9.23;;;4.63;;
18695;SDS011;22617;43.690;27.956;2022-07-06T07:52:27;7.65;;;4.40;;
18695;SDS011;22617;43.690;27.956;2022-07-06T07:57:31;5.80;;;4.25;;
18695;SDS011;22617;43.690;27.956;2022-07-06T08:02:36;8.70;;;4.32;;
18695;SDS011;22617;43.690;27.956;2022-07-06T08:07:41;7.78;;;4.05;;
18695;SDS011;22617;43.690;27.956;2022-07-06T08:12:46;4.85;;;4.00;;
18695;SDS011;22617;43.690;27.956;2022-07-06T08:17:50;6.50;;;4.22;;
18695;SDS011;22617;43.690;27.956;2022-07-06T08:22:56;6.47;;;4.10;;
18695;SDS011;22617;43.690;27.956;2022-07-06T08:28:00;7.10;;;4.03;;
18695;SDS011;22617;43.690;27.956;2022-07-06T08:33:05;4.43;;;3.53;;
18695;SDS011;22617;43.690;27.956;2022-07-06T08:38:11;7.97;;;4.40;;
18695;SDS011;22617;43.690;27.956;2022-07-06T08:43:15;7.55;;;4.20;;
18695;SDS011;22617;43.690;27.956;2022-07-06T08:48:20;4.97;;;4.47;;
18695;SDS011;22617;43.690;27.956;2022-07-06T08:53:28;5.32;;;4.38;;
18695;SDS011;22617;43.690;27.956;2022-07-06T08:58:32;8.30;;;4.30;;
18695;SDS011;22617;43.690;27.956;2022-07-06T09:03:37;6.18;;;4.22;;
18695;SDS011;22617;43.690;27.956;2022-07-06T09:08:45;12.57;;;5.22;;
18695;SDS011;22617;43.690;27.956;2022-07-06T09:13:52;7.93;;;4.90;;
18695;SDS011;22617;43.690;27.956;2022-07-06T09:18:56;9.63;;;4.63;;
18695;SDS011;22617;43.690;27.956;2022-07-06T09:24:02;8.10;;;4.32;;
18695;SDS011;22617;43.690;27.956;2022-07-06T09:29:11;7.13;;;4.60;;
18695;SDS011;22617;43.690;27.956;2022-07-06T09:34:16;7.90;;;5.35;;
18695;SDS011;22617;43.690;27.956;2022-07-06T09:39:22;8.27;;;4.80;;
18695;SDS011;22617;43.690;27.956;2022-07-06T09:44:28;6.88;;;4.28;;
18695;SDS011;22617;43.690;27.956;2022-07-06T09:49:35;7.93;;;4.35;;
18695;SDS011;22617;43.690;27.956;2022-07-06T09:54:41;6.50;;;4.50;;
18695;SDS011;22617;43.690;27.956;2022-07-06T09:59:50;8.18;;;4.80;;
18695;SDS011;22617;43.690;27.956;2022-07-06T10:04:54;5.68;;;4.40;;
18695;SDS011;22617;43.690;27.956;2022-07-06T10:10:01;5.43;;;4.28;;
18695;SDS011;22617;43.690;27.956;2022-07-06T10:15:06;7.57;;;4.65;;
18695;SDS011;22617;43.690;27.956;2022-07-06T10:20:11;6.40;;;4.15;;
18695;SDS011;22617;43.690;27.956;2022-07-06T10:25:17;6.25;;;4.65;;
18695;SDS011;22617;43.690;27.956;2022-07-06T10:30:22;8.50;;;4.20;;
18695;SDS011;22617;43.690;27.956;2022-07-06T10:35:28;7.25;;;4.55;;
18695;SDS011;22617;43.690;27.956;2022-07-06T10:40:35;6.55;;;4.75;;
18695;SDS011;22617;43.690;27.956;2022-07-06T10:45:58;5.45;;;4.85;;
18695;SDS011;22617;43.690;27.956;2022-07-06T10:51:02;7.03;;;4.68;;
18695;SDS011;22617;43.690;27.956;2022-07-06T10:56:10;7.68;;;4.75;;
18695;SDS011;22617;43.690;27.956;2022-07-06T11:01:14;8.00;;;4.55;;
18695;SDS011;22617;43.690;27.956;2022-07-06T11:06:20;5.78;;;4.32;;
18695;SDS011;22617;43.690;27.956;2022-07-06T11:11:37;7.50;;;4.20;;
18695;SDS011;22617;43.690;27.956;2022-07-06T11:17:00;4.70;;;4.05;;
18695;SDS011;22617;43.690;27.956;2022-07-06T11:22:06;4.90;;;4.30;;
18695;SDS011;22617;43.690;27.956;2022-07-06T11:27:13;8.13;;;4.65;;
18695;SDS011;22617;43.690;27.956;2022-07-06T11:32:22;5.68;;;4.40;;
18695;SDS011;22617;43.690;27.956;2022-07-06T11:37:28;54.75;;;6.18;;
18695;SDS011;22617;43.690;27.956;2022-07-06T11:42:33;5.72;;;4.22;;
18695;SDS011;22617;43.690;27.956;2022-07-06T11:47:38;7.68;;;5.20;;
18695;SDS011;22617;43.690;27.956;2022-07-06T11:52:42;6.10;;;4.18;;
18695;SDS011;22617;43.690;27.956;2022-07-06T11:57:48;7.88;;;4.45;;
18695;SDS011;22617;43.690;27.956;2022-07-06T12:03:01;9.95;;;4.97;;
18695;SDS011;22617;43.690;27.956;2022-07-06T12:08:06;17.35;;;5.43;;
18695;SDS011;22617;43.690;27.956;2022-07-06T12:13:12;9.30;;;4.53;;
18695;SDS011;22617;43.690;27.956;2022-07-06T12:18:16;8.07;;;4.78;;
18695;SDS011;22617;43.690;27.956;2022-07-06T12:23:21;6.60;;;4.13;;
18695;SDS011;22617;43.690;27.956;2022-07-06T12:28:27;6.25;;;4.57;;
18695;SDS011;22617;43.690;27.956;2022-07-06T12:33:32;6.78;;;4.30;;
18695;SDS011;22617;43.690;27.956;2022-07-06T12:38:40;7.82;;;4.70;;
18695;SDS011;22617;43.690;27.956;2022-07-06T12:43:59;5.57;;;4.28;;
18695;SDS011;22617;43.690;27.956;2022-07-06T12:49:10;7.38;;;4.53;;
18695;SDS011;22617;43.690;27.956;2022-07-06T12:54:17;5.18;;;4.10;;
18695;SDS011;22617;43.690;27.956;2022-07-06T12:59:23;8.27;;;4.22;;
18695;SDS011;22617;43.690;27.956;2022-07-06T13:04:28;7.28;;;3.97;;
18695;SDS011;22617;43.690;27.956;2022-07-06T13:09:35;8.68;;;4.32;;
18695;SDS011;22617;43.690;27.956;2022-07-06T13:14:41;7.47;;;4.75;;
18695;SDS011;22617;43.690;27.956;2022-07-06T13:19:45;10.52;;;5.10;;
18695;SDS011;22617;43.690;27.956;2022-07-06T13:24:49;4.75;;;3.85;;
18695;SDS011;22617;43.690;27.956;2022-07-06T13:29:55;7.30;;;4.10;;
18695;SDS011;22617;43.690;27.956;2022-07-06T13:35:00;5.95;;;3.92;;
18695;SDS011;22617;43.690;27.956;2022-07-06T13:40:04;9.32;;;5.60;;
18695;SDS011;22617;43.690;27.956;2022-07-06T13:45:12;7.10;;;4.15;;
18695;SDS011;22617;43.690;27.956;2022-07-06T13:50:16;4.75;;;3.88;;
18695;SDS011;22617;43.690;27.956;2022-07-06T13:55:21;6.90;;;3.90;;
18695;SDS011;22617;43.690;27.956;2022-07-06T14:00:26;6.07;;;4.00;;
18695;SDS011;22617;43.690;27.956;2022-07-06T14:05:30;4.70;;;3.40;;
18695;SDS011;22617;43.690;27.956;2022-07-06T14:10:35;5.22;;;3.95;;
18695;SDS011;22617;43.690;27.956;2022-07-06T14:15:40;6.18;;;3.80;;
18695;SDS011;22617;43.690;27.956;2022-07-06T14:20:44;6.18;;;4.10;;
18695;SDS011;22617;43.690;27.956;2022-07-06T14:25:49;5.75;;;3.65;;
18695;SDS011;22617;43.690;27.956;2022-07-06T14:30:55;6.70;;;3.97;;
18695;SDS011;22617;43.690;27.956;2022-07-06T14:36:03;22.92;;;3.80;;
18695;SDS011;22617;43.690;27.956;2022-07-06T14:41:08;6.60;;;3.60;;
18695;SDS011;22617;43.690;27.956;2022-07-06T14:46:14;4.70;;;3.88;;
18695;SDS011;22617;43.690;27.956;2022-07-06T14:51:19;10.07;;;3.63;;
18695;SDS011;22617;43.690;27.956;2022-07-06T14:56:23;7.15;;;3.85;;
18695;SDS011;22617;43.690;27.956;2022-07-06T15:01:29;6.05;;;3.70;;
18695;SDS011;22617;43.690;27.956;2022-07-06T15:06:33;4.75;;;3.30;;
18695;SDS011;22617;43.690;27.956;2022-07-06T15:11:56;4.88;;;3.58;;
18695;SDS011;22617;43.690;27.956;2022-07-06T15:17:02;5.25;;;3.45;;
18695;SDS011;22617;43.690;27.956;2022-07-06T15:22:06;5.10;;;3.30;;
18695;SDS011;22617;43.690;27.956;2022-07-06T15:27:11;3.90;;;3.50;;
18695;SDS011;22617;43.690;27.956;2022-07-06T15:32:19;9.65;;;3.47;;
18695;SDS011;22617;43.690;27.956;2022-07-06T15:37:24;5.78;;;3.63;;
18695;SDS011;22617;43.690;27.956;2022-07-06T15:42:29;7.53;;;3.70;;
18695;SDS011;22617;43.690;27.956;2022-07-06T15:47:34;5.25;;;3.35;;
18695;SDS011;22617;43.690;27.956;2022-07-06T15:52:38;5.40;;;3.42;;
18695;SDS011;22617;43.690;27.956;2022-07-06T15:57:43;4.03;;;3.38;;
18695;SDS011;22617;43.690;27.956;2022-07-06T16:02:49;5.22;;;3.47;;
18695;SDS011;22617;43.690;27.956;2022-07-06T16:07:53;6.15;;;3.20;;
18695;SDS011;22617;43.690;27.956;2022-07-06T16:13:17;8.82;;;3.53;;
18695;SDS011;22617;43.690;27.956;2022-07-06T16:18:23;4.55;;;3.42;;
18695;SDS011;22617;43.690;27.956;2022-07-06T16:23:27;6.68;;;3.70;;
18695;SDS011;22617;43.690;27.956;2022-07-06T16:28:32;6.25;;;4.13;;
18695;SDS011;22617;43.690;27.956;2022-07-06T16:33:38;4.28;;;3.50;;
18695;SDS011;22617;43.690;27.956;2022-07-06T16:38:44;7.20;;;3.63;;
18695;SDS011;22617;43.690;27.956;2022-07-06T16:43:48;4.70;;;3.33;;
18695;SDS011;22617;43.690;27.956;2022-07-06T16:48:54;4.82;;;3.25;;
18695;SDS011;22617;43.690;27.956;2022-07-06T16:53:58;6.65;;;3.78;;
18695;SDS011;22617;43.690;27.956;2022-07-06T16:59:02;4.63;;;3.53;;
18695;SDS011;22617;43.690;27.956;2022-07-06T17:04:08;5.78;;;3.40;;
18695;SDS011;22617;43.690;27.956;2022-07-06T17:09:15;7.63;;;3.13;;
18695;SDS011;22617;43.690;27.956;2022-07-06T17:14:20;5.50;;;3.30;;
18695;SDS011;22617;43.690;27.956;2022-07-06T17:19:26;6.72;;;3.30;;
18695;SDS011;22617;43.690;27.956;2022-07-06T17:24:30;5.10;;;3.38;;
18695;SDS011;22617;43.690;27.956;2022-07-06T17:29:35;4.43;;;3.60;;
18695;SDS011;22617;43.690;27.956;2022-07-06T17:34:41;6.53;;;3.58;;
18695;SDS011;22617;43.690;27.956;2022-07-06T17:39:48;5.95;;;4.05;;
18695;SDS011;22617;43.690;27.956;2022-07-06T17:44:52;8.93;;;3.92;;
18695;SDS011;22617;43.690;27.956;2022-07-06T17:49:58;5.43;;;3.40;;
18695;SDS011;22617;43.690;27.956;2022-07-06T17:55:03;7.03;;;3.50;;
18695;SDS011;22617;43.690;27.956;2022-07-06T18:00:08;9.85;;;3.60;;
18695;SDS011;22617;43.690;27.956;2022-07-06T18:05:14;5.18;;;3.30;;
18695;SDS011;22617;43.690;27.956;2022-07-06T18:10:19;9.13;;;3.75;;
18695;SDS011;22617;43.690;27.956;2022-07-06T18:15:24;8.60;;;3.65;;
18695;SDS011;22617;43.690;27.956;2022-07-06T18:20:30;5.80;;;3.70;;
18695;SDS011;22617;43.690;27.956;2022-07-06T18:25:34;6.38;;;3.38;;
18695;SDS011;22617;43.690;27.956;2022-07-06T18:30:40;7.35;;;3.58;;
18695;SDS011;22617;43.690;27.956;2022-07-06T18:35:45;6.38;;;3.58;;
18695;SDS011;22617;43.690;27.956;2022-07-06T18:40:56;5.30;;;3.38;;
18695;SDS011;22617;43.690;27.956;2022-07-06T18:46:01;7.20;;;3.80;;
18695;SDS011;22617;43.690;27.956;2022-07-06T18:51:08;6.85;;;3.58;;
18695;SDS011;22617;43.690;27.956;2022-07-06T18:56:12;6.80;;;3.55;;
18695;SDS011;22617;43.690;27.956;2022-07-06T19:01:17;5.90;;;3.83;;
18695;SDS011;22617;43.690;27.956;2022-07-06T19:06:24;6.60;;;4.05;;
18695;SDS011;22617;43.690;27.956;2022-07-06T19:11:29;11.07;;;4.22;;
18695;SDS011;22617;43.690;27.956;2022-07-06T19:16:33;7.47;;;3.75;;
18695;SDS011;22617;43.690;27.956;2022-07-06T19:21:41;5.72;;;3.97;;
18695;SDS011;22617;43.690;27.956;2022-07-06T19:26:46;4.35;;;3.75;;
18695;SDS011;22617;43.690;27.956;2022-07-06T19:31:51;11.98;;;5.63;;
18695;SDS011;22617;43.690;27.956;2022-07-06T19:36:57;7.88;;;5.50;;
18695;SDS011;22617;43.690;27.956;2022-07-06T19:42:01;11.45;;;5.55;;
18695;SDS011;22617;43.690;27.956;2022-07-06T19:47:06;9.02;;;6.07;;
18695;SDS011;22617;43.690;27.956;2022-07-06T19:52:12;8.35;;;6.65;;
18695;SDS011;22617;43.690;27.956;2022-07-06T19:57:17;8.65;;;6.10;;
18695;SDS011;22617;43.690;27.956;2022-07-06T20:02:22;7.93;;;6.55;;
18695;SDS011;22617;43.690;27.956;2022-07-06T20:07:29;10.38;;;7.05;;
18695;SDS011;22617;43.690;27.956;2022-07-06T20:12:33;7.65;;;6.30;;
18695;SDS011;22617;43.690;27.956;2022-07-06T20:17:37;9.30;;;6.93;;
18695;SDS011;22617;43.690;27.956;2022-07-06T20:22:44;10.68;;;6.88;;
18695;SDS011;22617;43.690;27.956;2022-07-06T20:27:48;9.18;;;7.05;;
18695;SDS011;22617;43.690;27.956;2022-07-06T20:32:54;8.93;;;6.78;;
18695;SDS011;22617;43.690;27.956;2022-07-06T20:38:00;10.35;;;8.23;;
18695;SDS011;22617;43.690;27.956;2022-07-06T20:43:05;8.98;;;7.15;;
18695;SDS011;22617;43.690;27.956;2022-07-06T20:48:25;10.82;;;6.82;;
18695;SDS011;22617;43.690;27.956;2022-07-06T20:53:31;8.98;;;7.05;;
18695;SDS011;22617;43.690;27.956;2022-07-06T20:58:35;9.73;;;7.43;;
18695;SDS011;22617;43.690;27.956;2022-07-06T21:04:00;8.10;;;6.97;;
18695;SDS011;22617;43.690;27.956;2022-07-06T21:09:06;11.88;;;7.03;;
18695;SDS011;22617;43.690;27.956;2022-07-06T21:14:10;9.05;;;7.20;;
18695;SDS011;22617;43.690;27.956;2022-07-06T21:19:14;10.35;;;7.38;;
18695;SDS011;22617;43.690;27.956;2022-07-06T21:24:20;9.40;;;7.35;;
18695;SDS011;22617;43.690;27.956;2022-07-06T21:29:25;11.27;;;7.60;;
18695;SDS011;22617;43.690;27.956;2022-07-06T21:34:30;9.52;;;7.50;;
18695;SDS011;22617;43.690;27.956;2022-07-06T21:39:35;8.73;;;6.57;;
18695;SDS011;22617;43.690;27.956;2022-07-06T21:44:40;10.23;;;8.05;;
18695;SDS011;22617;43.690;27.956;2022-07-06T21:49:46;9.82;;;7.43;;
18695;SDS011;22617;43.690;27.956;2022-07-06T21:54:52;14.15;;;8.00;;
18695;SDS011;22617;43.690;27.956;2022-07-06T21:59:56;9.73;;;7.85;;
18695;SDS011;22617;43.690;27.956;2022-07-06T22:05:01;11.20;;;8.10;;
18695;SDS011;22617;43.690;27.956;2022-07-06T22:10:11;14.68;;;9.57;;
18695;SDS011;22617;43.690;27.956;2022-07-06T22:15:15;11.82;;;8.30;;
18695;SDS011;22617;43.690;27.956;2022-07-06T22:20:20;11.25;;;8.82;;
18695;SDS011;22617;43.690;27.956;2022-07-06T22:25:26;9.18;;;7.63;;
18695;SDS011;22617;43.690;27.956;2022-07-06T22:30:30;10.85;;;8.35;;
18695;SDS011;22617;43.690;27.956;2022-07-06T22:35:34;12.40;;;8.65;;
18695;SDS011;22617;43.690;27.956;2022-07-06T22:40:40;14.57;;;8.70;;
18695;SDS011;22617;43.690;27.956;2022-07-06T22:46:01;10.95;;;8.40;;
18695;SDS011;22617;43.690;27.956;2022-07-06T22:51:06;10.20;;;8.07;;
18695;SDS011;22617;43.690;27.956;2022-07-06T22:56:12;12.23;;;7.82;;
18695;SDS011;22617;43.690;27.956;2022-07-06T23:01:16;10.55;;;8.30;;
18695;SDS011;22617;43.690;27.956;2022-07-06T23:06:22;11.05;;;9.60;;
18695;SDS011;22617;43.690;27.956;2022-07-06T23:11:29;12.35;;;9.95;;
18695;SDS011;22617;43.690;27.956;2022-07-06T23:16:33;17.42;;;11.40;;
18695;SDS011;22617;43.690;27.956;2022-07-06T23:21:38;15.32;;;11.55;;
18695;SDS011;22617;43.690;27.956;2022-07-06T23:26:44;15.50;;;10.60;;
18695;SDS011;22617;43.690;27.956;2022-07-06T23:31:48;14.18;;;10.32;;
18695;SDS011;22617;43.690;27.956;2022-07-06T23:36:53;15.02;;;11.20;;
18695;SDS011;22617;43.690;27.956;2022-07-06T23:41:58;14.70;;;10.88;;
18695;SDS011;22617;43.690;27.956;2022-07-06T23:47:03;17.70;;;10.88;;
18695;SDS011;22617;43.690;27.956;2022-07-06T23:52:08;14.35;;;10.35;;
18695;SDS011;22617;43.690;27.956;2022-07-06T23:57:13;14.70;;;10.45;;
